Time;durP1;ratioP1;P1;durP2;ratioP2;P2;SDS_P1;SDS_P2;PMS_P1;PMS_P2;Temp;Humidity;BMP_temperature;BMP_pressure;BME280_temperature;BME280_humidity;BME280_pressure;Samples;Min_cycle;Max_cycle;Signal;HPM_P1;HPM_P2
2022/06/17 00:01:49;;;;;;;6.97;4.00;;;;;;;-146.64;100.00;37430.81;5102603;28;20382;-72
2022/06/17 00:04:15;;;;;;;6.37;3.90;;;;;;;-146.64;100.00;37481.94;5089797;28;20060;-71
2022/06/17 00:06:45;;;;;;;4.28;3.83;;;;;;;-146.64;100.00;37602.66;5054565;28;20036;-72
2022/06/17 00:09:13;;;;;;;6.88;4.10;;;;;;;-146.64;100.00;37524.91;5071026;28;20036;-74
2022/06/17 00:11:38;;;;;;;10.07;4.20;;;;;;;-146.64;100.00;38204.13;5070897;28;20500;-73
2022/06/17 00:14:11;;;;;;;8.53;4.10;;;;;;;-146.64;100.00;37991.34;5089375;28;20106;-74
2022/06/17 00:16:36;;;;;;;8.90;4.03;;;;;;;-146.64;100.00;38457.84;5070736;28;20032;-73
2022/06/17 00:19:02;;;;;;;5.73;4.30;;;;;;;-146.64;100.00;37823.59;5072162;28;20028;-74
2022/06/17 00:21:33;;;;;;;12.63;4.60;;;;;;;-146.64;100.00;38015.91;5070737;28;20204;-74
2022/06/17 00:24:00;;;;;;;8.68;4.35;;;;;;;-146.64;100.00;37852.22;5071319;28;20086;-74
2022/06/17 00:26:25;;;;;;;8.90;4.22;;;;;;;-146.64;100.00;37811.31;5081995;28;20032;-73
2022/06/17 00:28:51;;;;;;;7.53;4.40;;;;;;;-146.64;100.00;38146.84;5103331;28;20399;-71
2022/06/17 00:31:16;;;;;;;13.40;4.80;;;;;;;-146.64;100.00;37844.03;5070730;28;20024;-72
2022/06/17 00:33:42;;;;;;;7.60;4.20;;;;;;;-146.64;100.00;38515.13;5070844;28;20032;-72
2022/06/17 00:36:15;;;;;;;8.83;4.63;;;;;;;-146.64;100.00;38271.66;5103142;28;20038;-72
2022/06/17 00:38:41;;;;;;;8.55;4.65;;;;;;;-146.64;100.00;40140.13;5083697;28;20032;-74
2022/06/17 00:41:13;;;;;;;11.17;4.40;;;;;;;-146.64;100.00;38343.25;5070684;28;20028;-74
2022/06/17 00:43:40;;;;;;;10.30;4.22;;;;;;;-146.64;100.00;38173.44;5071107;28;20028;-74
2022/06/17 00:46:25;;;;;;;7.15;4.82;;;;;;;-146.64;100.00;40525.00;5076022;28;20042;-74
2022/06/17 00:49:05;;;;;;;6.07;4.38;;;;;;;-146.64;100.00;41925.56;5074654;28;20040;-73
2022/06/17 00:51:35;;;;;;;5.68;3.78;;;;;;;-146.64;100.00;39030.81;5071130;28;20094;-73
2022/06/17 00:54:13;;;;;;;11.15;4.05;;;;;;;-146.64;100.00;45037.63;5104782;28;20474;-74
2022/06/17 00:56:39;;;;;;;13.30;4.88;;;;;;;-146.64;100.00;43177.06;5091594;28;20039;-71
2022/06/17 00:59:15;;;;;;;8.47;4.53;;;;;;;-146.64;100.00;45806.28;5100743;28;20028;-73
2022/06/17 01:01:58;;;;;;;8.90;4.57;;;;;;;-146.64;100.00;47130.81;5105886;28;20367;-74
2022/06/17 01:04:26;;;;;;;6.78;4.97;;;;;;;-146.64;100.00;44236.31;5058703;28;20058;-73
2022/06/17 01:07:17;;;;;;;5.05;3.92;;;;;;;-146.64;100.00;51162.41;5074275;28;20123;-72
2022/06/17 01:10:00;;;;;;;5.88;4.10;;;;;;;-146.64;100.00;51887.09;5105800;28;20063;-73
2022/06/17 01:12:29;;;;;;;8.45;4.43;;;;;;;-146.64;100.00;48578.84;5096483;28;20040;-71
2022/06/17 01:14:55;;;;;;;5.88;4.30;;;;;;;-146.64;100.00;53727.13;5093498;28;20115;-74
2022/06/17 01:17:21;;;;;;;8.07;4.70;;;;;;;-146.64;100.00;51938.44;5084518;28;20032;-74
2022/06/17 01:19:49;;;;;;;5.55;4.43;;;;;;;-146.64;100.00;57409.78;5097255;28;20050;-73
2022/06/17 01:22:27;;;;;;;10.10;4.90;;;;;;;-146.64;100.00;59515.66;5081297;28;20387;-73
2022/06/17 01:25:11;;;;;;;5.78;4.40;;;;;;;-146.64;100.00;56883.47;5106730;28;20089;-73
2022/06/17 01:27:40;;;;;;;6.18;4.55;;;;;;;-146.64;100.00;61359.25;5103495;28;20039;-74
2022/06/17 01:30:08;;;;;;;8.10;4.90;;;;;;;-146.64;100.00;59515.66;5074936;28;20409;-73
2022/06/17 01:32:56;;;;;;;6.93;4.70;;;;;;;-146.64;100.00;58725.81;5082951;28;20081;-73
2022/06/17 01:35:24;;;;;;;8.00;5.03;;;;;;;-146.64;100.00;66895.09;5091982;28;20046;-71
2022/06/17 01:37:49;;;;;;;9.52;4.97;;;;;;;-146.64;100.00;64785.31;5080682;28;20481;-71
2022/06/17 01:40:16;;;;;;;11.63;4.70;;;;;;;-146.64;100.00;61095.81;5073282;28;20024;-72
2022/06/17 01:42:42;;;;;;;5.65;4.38;;;;;;;-146.64;100.00;65048.97;5091962;28;20023;-74
2022/06/17 01:45:08;;;;;;;7.93;4.70;;;;;;;-146.64;100.00;58462.56;5069988;28;20036;-74
2022/06/17 01:47:34;;;;;;;8.85;4.70;;;;;;;-146.64;100.00;70854.00;5092663;28;20028;-74
2022/06/17 01:50:05;;;;;;;12.57;4.95;;;;;;;-146.64;100.00;73231.22;5069057;28;20401;-72
2022/06/17 01:52:44;;;;;;;8.38;4.38;;;;;;;-146.64;100.00;75345.50;5077049;28;20118;-73
2022/06/17 01:55:21;;;;;;;4.78;4.00;;;;;;;-146.64;100.00;71646.25;5076427;28;20058;-73
2022/06/17 01:58:09;;;;;;;6.03;4.68;;;;;;;-146.64;100.00;65576.34;5073238;28;20077;-73
2022/06/17 02:00:35;;;;;;;6.32;5.00;;;;;;;-146.64;100.00;72702.84;5073290;28;20020;-74
2022/06/17 02:03:15;;;;;;;8.40;4.90;;;;;;;-146.64;100.00;74552.53;5073055;28;20257;-73
2022/06/17 02:05:44;;;;;;;6.72;4.45;;;;;;;-146.64;100.00;75609.88;5073309;28;20228;-73
2022/06/17 02:08:09;;;;;;;6.55;4.68;;;;;;;-146.64;100.00;74816.84;5072924;28;20024;-73
2022/06/17 02:10:38;;;;;;;11.87;4.10;;;;;;;-146.64;100.00;73231.22;5091269;28;20368;-73
2022/06/17 02:13:07;;;;;;;10.60;4.25;;;;;;;-146.64;100.00;72438.66;5080003;28;20432;-73
2022/06/17 02:15:33;;;;;;;9.88;4.75;;;;;;;-146.64;100.00;72702.84;5072100;28;20613;-73
2022/06/17 02:18:00;;;;;;;7.85;4.70;;;;;;;-146.64;100.00;75345.50;5080692;28;20047;-74
2022/06/17 02:20:25;;;;;;;10.88;4.97;;;;;;;-146.64;100.00;77196.41;5056606;28;20028;-73
2022/06/17 02:22:52;;;;;;;7.93;4.00;;;;;;;-146.64;100.00;71118.06;5076029;28;20042;-74
2022/06/17 02:25:20;;;;;;;7.15;4.78;;;;;;;-146.64;100.00;72967.03;5072823;28;20024;-72
2022/06/17 02:27:48;;;;;;;6.05;4.63;;;;;;;-146.64;100.00;70589.97;5072565;28;20043;-73
2022/06/17 02:30:14;;;;;;;9.88;4.45;;;;;;;-146.64;100.00;76138.66;5059842;28;20020;-72
2022/06/17 02:32:40;;;;;;;7.32;4.43;;;;;;;-146.64;100.00;74816.84;5089317;28;20024;-71
2022/06/17 02:35:25;;;;;;;6.60;4.30;;;;;;;-146.64;100.00;69006.03;5072186;28;20414;-72
2022/06/17 02:37:52;;;;;;;7.57;4.80;;;;;;;-146.64;100.00;69533.94;5096556;28;20042;-72
2022/06/17 02:40:25;;;;;;;10.05;5.03;;;;;;;-146.64;100.00;69006.03;5074850;28;20039;-72
2022/06/17 02:42:51;;;;;;;7.20;5.35;;;;;;;-146.64;100.00;68478.19;5077258;28;20137;-73
2022/06/17 02:45:22;;;;;;;7.93;5.32;;;;;;;-146.64;100.00;63203.69;5072446;28;20059;-73
2022/06/17 02:47:47;;;;;;;8.70;4.72;;;;;;;-146.64;100.00;60042.31;5059664;28;20063;-72
2022/06/17 02:50:20;;;;;;;8.77;5.87;;;;;;;-146.64;100.00;44803.97;5073309;28;20119;-73
2022/06/17 02:52:46;;;;;;;11.32;5.50;;;;;;;-146.64;100.00;42687.47;5110967;28;20044;-73
2022/06/17 02:55:20;;;;;;;7.32;5.22;;;;;;;-146.64;100.00;38400.56;5076470;28;20395;-73
2022/06/17 02:57:47;;;;;;;8.80;5.43;;;;;;;-146.64;100.00;37770.41;5066040;28;20055;-73
2022/06/17 03:00:17;;;;;;;10.05;5.22;;;;;;;-146.64;100.00;37684.47;5072084;28;20387;-73
2022/06/17 03:02:48;;;;;;;9.18;5.68;;;;;;;-146.64;100.00;37921.78;5090428;28;20092;-72
2022/06/17 03:05:24;;;;;;;13.82;5.60;;;;;;;-146.64;100.00;37670.16;5073175;28;20028;-73
2022/06/17 03:07:50;;;;;;;10.40;5.45;;;;;;;-146.64;100.00;37631.28;5089829;28;20055;-72
2022/06/17 03:10:19;;;;;;;6.70;5.47;;;;;;;-146.64;100.00;37594.47;5090026;28;20491;-73
2022/06/17 03:12:49;;;;;;;9.50;5.57;;;;;;;-146.64;100.00;37619.00;5090302;28;20102;-72
2022/06/17 03:15:17;;;;;;;9.55;5.72;;;;;;;-146.64;100.00;37664.00;5077971;28;20476;-71
2022/06/17 03:17:44;;;;;;;9.32;6.00;;;;;;;-146.64;100.00;37711.06;5070527;28;20486;-72
2022/06/17 03:20:36;;;;;;;12.77;6.35;;;;;;;-146.64;100.00;37698.78;5075164;28;20050;-72
2022/06/17 03:23:10;;;;;;;10.50;6.45;;;;;;;-146.64;100.00;37713.13;5087834;28;20551;-72
2022/06/17 03:25:55;;;;;;;12.35;6.07;;;;;;;-146.64;100.00;37801.09;5079749;28;20016;-72
2022/06/17 03:28:27;;;;;;;11.07;6.22;;;;;;;-146.64;100.00;37774.50;5072206;28;20064;-72
2022/06/17 03:31:03;;;;;;;11.52;6.63;;;;;;;-146.64;100.00;37811.31;5060492;28;20027;-72
2022/06/17 03:33:34;;;;;;;11.13;6.15;;;;;;;-146.64;100.00;37790.84;5071760;28;20035;-72
2022/06/17 03:36:04;;;;;;;9.27;5.80;;;;;;;-146.64;100.00;37713.13;5072130;28;20039;-72
2022/06/17 03:38:43;;;;;;;13.60;7.05;;;;;;;-146.64;100.00;37776.53;5061931;28;20024;-72
2022/06/17 03:41:21;;;;;;;13.57;5.85;;;;;;;-146.64;100.00;37754.03;5087114;28;20034;-72
2022/06/17 03:43:53;;;;;;;8.73;6.40;;;;;;;-146.64;100.00;37778.59;5091159;28;20023;-72
2022/06/17 03:46:20;;;;;;;9.43;6.18;;;;;;;-146.64;100.00;37721.28;5097068;28;20024;-72
2022/06/17 03:49:05;;;;;;;8.55;6.13;;;;;;;-146.64;100.00;37741.75;5071903;28;20069;-72
2022/06/17 03:51:31;;;;;;;15.75;6.88;;;;;;;-146.64;100.00;37756.06;5056961;28;20028;-72
2022/06/17 03:53:56;;;;;;;9.20;6.27;;;;;;;-146.64;100.00;37766.31;5095984;28;20054;-73
2022/06/17 03:56:27;;;;;;;10.20;6.27;;;;;;;-146.64;100.00;37745.84;5089561;28;20485;-72
2022/06/17 03:58:54;;;;;;;14.90;6.68;;;;;;;-146.64;100.00;37737.66;5077644;28;20084;-73
2022/06/17 04:01:47;;;;;;;14.70;7.00;;;;;;;-146.64;100.00;37774.50;5071878;28;20038;-73
2022/06/17 04:04:19;;;;;;;13.07;7.30;;;;;;;-146.64;100.00;37776.53;5063982;28;20044;-72
2022/06/17 04:06:46;;;;;;;11.93;6.47;;;;;;;-146.64;100.00;37790.84;5054567;28;20081;-72
2022/06/17 04:09:16;;;;;;;;;;;;;;;-146.64;100.00;37801.09;5076305;28;20041;-72
2022/06/17 04:11:45;;;;;;;12.35;6.80;;;;;;;-146.64;100.00;37807.22;5073182;28;19915;-72
2022/06/17 04:14:32;;;;;;;10.80;6.20;;;;;;;-146.64;100.00;37770.41;5076391;28;20066;-72
2022/06/17 04:17:05;;;;;;;10.90;7.40;;;;;;;-146.64;100.00;37801.09;5079380;28;20024;-72
2022/06/17 04:19:30;;;;;;;9.73;6.35;;;;;;;-146.64;100.00;37811.31;5077935;28;20043;-73
2022/06/17 04:22:04;;;;;;;11.73;6.63;;;;;;;-146.64;100.00;37754.03;5090501;28;20417;-72
2022/06/17 04:24:30;;;;;;;12.02;6.53;;;;;;;-146.64;100.00;37786.75;5055965;28;20074;-72
2022/06/17 04:26:59;;;;;;;9.57;7.07;;;;;;;-146.64;100.00;37821.53;5078975;28;20039;-72
2022/06/17 04:29:40;;;;;;;9.27;6.85;;;;;;;-146.64;100.00;37807.22;5071218;28;20060;-72
2022/06/17 04:32:10;;;;;;;13.38;6.32;;;;;;;-146.64;100.00;37749.94;5087513;28;20030;-72
2022/06/17 04:34:36;;;;;;;11.43;6.53;;;;;;;-146.64;100.00;37799.03;5096405;28;20032;-72
2022/06/17 04:37:05;;;;;;;10.77;6.87;;;;;;;-146.64;100.00;37790.84;5110142;28;20031;-73
2022/06/17 04:39:43;;;;;;;11.80;6.90;;;;;;;-146.64;100.00;37749.94;5059171;28;20124;-72
2022/06/17 04:42:11;;;;;;;;;;;;;;;-146.64;100.00;37723.34;5089195;28;20030;-72
2022/06/17 04:44:38;;;;;;;7.80;6.22;;;;;;;-146.64;100.00;37741.75;5076077;28;19924;-72
2022/06/17 04:47:10;;;;;;;12.77;6.97;;;;;;;-146.64;100.00;37709.03;5090906;28;20035;-73
2022/06/17 04:49:38;;;;;;;11.60;7.10;;;;;;;-146.64;100.00;37700.84;5095093;28;20031;-72
2022/06/17 04:52:25;;;;;;;9.52;7.10;;;;;;;-146.64;100.00;37704.94;5074375;28;20035;-73
2022/06/17 04:54:50;;;;;;;11.50;6.72;;;;;;;-146.64;100.00;37659.94;5094699;28;20028;-73
2022/06/17 04:57:16;;;;;;;14.30;7.73;;;;;;;-146.64;100.00;37735.63;5074309;28;20031;-72
2022/06/17 04:59:44;;;;;;;10.60;7.00;;;;;;;-146.64;100.00;37713.13;5074449;28;20019;-73
2022/06/17 05:02:27;;;;;;;13.63;7.60;;;;;;;-146.64;100.00;37760.16;5089872;28;20383;-73
2022/06/17 05:04:57;;;;;;;11.48;6.78;;;;;;;-146.64;100.00;37520.81;5104102;28;20040;-73
2022/06/17 05:07:23;;;;;;;13.05;7.28;;;;;;;-146.64;100.00;37623.09;5074197;28;20032;-73
2022/06/17 05:09:55;;;;;;;12.07;7.07;;;;;;;-146.64;100.00;37610.81;5091814;28;20145;-72
2022/06/17 05:12:26;;;;;;;16.38;7.10;;;;;;;-146.64;100.00;37451.25;5091459;28;20120;-73
2022/06/17 05:14:55;;;;;;;11.20;7.38;;;;;;;-146.64;100.00;37467.63;5097333;28;20051;-72
2022/06/17 05:17:20;;;;;;;14.57;7.47;;;;;;;-146.64;100.00;37590.38;5079102;28;20475;-73
2022/06/17 05:19:48;;;;;;;14.80;8.13;;;;;;;-146.64;100.00;37545.38;5091564;28;20047;-73
2022/06/17 05:22:20;;;;;;;15.20;7.28;;;;;;;-146.64;100.00;37518.78;5074160;28;20162;-73
2022/06/17 05:24:46;;;;;;;17.00;7.97;;;;;;;-146.64;100.00;37500.34;5057754;28;20044;-72
2022/06/17 05:27:12;;;;;;;15.63;7.85;;;;;;;-146.64;100.00;37422.63;5073482;28;20387;-72
2022/06/17 05:29:37;;;;;;;11.83;6.97;;;;;;;-146.64;100.00;37295.81;5080659;28;20028;-72
2022/06/17 05:32:03;;;;;;;10.70;7.30;;;;;;;-146.64;100.00;37361.25;5096256;28;20020;-72
2022/06/17 05:34:28;;;;;;;13.93;7.25;;;;;;;-146.64;100.00;37430.81;5058664;28;20073;-73
2022/06/17 05:36:56;;;;;;;12.87;8.03;;;;;;;-146.64;100.00;37445.13;5105845;28;20040;-72
2022/06/17 05:39:22;;;;;;;13.38;7.88;;;;;;;-146.64;100.00;37447.19;5096383;28;20023;-72
2022/06/17 05:41:47;;;;;;;13.57;7.90;;;;;;;-146.64;100.00;37416.50;5091949;28;20408;-73
2022/06/17 05:44:14;;;;;;;13.30;7.97;;;;;;;-146.64;100.00;37459.44;5093784;28;20039;-73
2022/06/17 05:46:39;;;;;;;18.95;8.23;;;;;;;-146.64;100.00;37434.91;5093146;28;20386;-72
2022/06/17 05:49:04;;;;;;;15.07;9.37;;;;;;;-146.64;100.00;37373.53;5074156;28;20049;-73
2022/06/17 05:51:31;;;;;;;11.80;8.17;;;;;;;-146.64;100.00;37402.16;5073727;28;20115;-73
2022/06/17 05:53:56;;;;;;;15.65;8.18;;;;;;;-146.64;100.00;37391.94;5072332;28;20044;-73
2022/06/17 05:56:21;;;;;;;15.67;8.40;;;;;;;-146.64;100.00;37451.25;5077657;28;20039;-73
2022/06/17 05:58:47;;;;;;;12.47;8.37;;;;;;;-146.64;100.00;37385.81;5091547;28;20036;-73
2022/06/17 06:01:12;;;;;;;12.07;8.27;;;;;;;-146.64;100.00;37277.38;5102819;28;20039;-73
2022/06/17 06:03:37;;;;;;;13.63;9.30;;;;;;;-146.64;100.00;37348.97;5098997;28;20035;-72
2022/06/17 06:06:03;;;;;;;15.57;9.00;;;;;;;-146.64;100.00;37213.97;5098959;28;20039;-73
2022/06/17 06:08:28;;;;;;;22.10;8.27;;;;;;;-146.64;100.00;37279.44;5077575;28;20119;-73
2022/06/17 06:10:54;;;;;;;17.73;9.00;;;;;;;-146.64;100.00;37318.31;5070360;28;20032;-73
2022/06/17 06:13:22;;;;;;;12.30;8.83;;;;;;;-146.64;100.00;37095.34;5091024;28;20123;-73
2022/06/17 06:15:50;;;;;;;12.70;8.30;;;;;;;-146.64;92.03;36952.16;5078333;28;20039;-73
2022/06/17 06:18:21;;;;;;;10.70;7.13;;;;;;;-146.64;89.75;36651.50;5073525;28;20165;-73
2022/06/17 06:20:47;;;;;;;18.60;7.30;;;;;;;-146.64;88.32;36491.97;5071947;28;20028;-74
2022/06/17 06:23:13;;;;;;;14.43;7.28;;;;;;;-146.64;84.13;36444.94;5070975;28;20113;-74
2022/06/17 06:25:38;;;;;;;11.40;7.87;;;;;;;-146.64;80.77;36592.19;5055067;28;20060;-73
2022/06/17 06:28:11;;;;;;;13.07;7.23;;;;;;;-146.64;81.19;36481.75;5067536;28;20699;-74
2022/06/17 06:30:37;;;;;;;16.90;7.57;;;;;;;-146.64;81.33;36653.56;5072204;28;20120;-73
2022/06/17 06:33:03;;;;;;;13.32;7.90;;;;;;;-146.64;82.79;36641.28;5090732;28;20065;-73
2022/06/17 06:35:34;;;;;;;11.80;7.68;;;;;;;-146.64;82.13;36573.78;5094682;28;20072;-74
2022/06/17 06:38:01;;;;;;;14.95;7.97;;;;;;;-146.64;79.55;36436.75;5072474;28;20498;-74
2022/06/17 06:40:26;;;;;;;;;;;;;;;-146.64;79.13;36424.50;5072814;28;20028;-73
2022/06/17 06:42:53;;;;;;;10.45;6.72;;;;;;;-146.64;77.96;36252.72;5070994;28;19923;-73
2022/06/17 06:45:27;;;;;;;11.98;7.63;;;;;;;-146.64;74.69;36150.47;5068778;28;20455;-73
2022/06/17 06:47:54;;;;;;;15.60;7.70;;;;;;;-146.64;73.76;36109.56;5072122;28;20024;-73
2022/06/17 06:50:22;;;;;;;16.63;7.78;;;;;;;-146.64;72.97;35868.28;5083748;28;20026;-73
2022/06/17 06:52:48;;;;;;;15.07;7.32;;;;;;;-146.64;73.43;35864.19;5060398;28;20020;-74
2022/06/17 06:55:14;;;;;;;11.90;7.50;;;;;;;-146.64;71.89;35659.69;5064676;28;20340;-74
2022/06/17 06:57:49;;;;;;;11.50;7.00;;;;;;;-146.64;73.03;35851.91;5071454;28;20284;-74
2022/06/17 07:00:25;;;;;;;14.45;7.05;;;;;;;-146.64;72.48;35737.41;5086863;28;20034;-74
2022/06/17 07:02:50;;;;;;;12.23;7.03;;;;;;;-146.64;69.66;35541.13;5071418;28;20507;-74
2022/06/17 07:05:16;;;;;;;14.25;6.88;;;;;;;-146.64;71.74;35622.91;5076813;28;20042;-74
2022/06/17 07:07:42;;;;;;;13.48;7.18;;;;;;;-146.64;69.04;35729.22;5078444;28;20120;-74
2022/06/17 07:10:11;;;;;;;11.10;7.10;;;;;;;-146.64;71.23;35815.09;5089384;28;20039;-74
2022/06/17 07:12:37;;;;;;;18.75;7.25;;;;;;;-146.64;69.48;35534.97;5075715;28;20040;-74
2022/06/17 07:15:03;;;;;;;11.43;7.30;;;;;;;-146.64;68.83;35721.03;5070353;28;20486;-74
2022/06/17 07:17:29;;;;;;;12.52;6.13;;;;;;;-146.64;67.89;35483.88;5078810;28;20055;-74
2022/06/17 07:19:54;;;;;;;10.43;5.87;;;;;;;-146.64;66.86;35463.41;5092608;28;20068;-74
2022/06/17 07:22:20;;;;;;;16.33;5.47;;;;;;;-146.64;62.94;35369.38;5076017;28;20043;-74
2022/06/17 07:24:46;;;;;;;9.93;5.30;;;;;;;-146.64;61.23;35514.53;5070945;28;20023;-74
2022/06/17 07:27:11;;;;;;;11.00;5.35;;;;;;;-146.64;60.55;35213.97;5062435;28;20035;-74
2022/06/17 07:29:36;;;;;;;9.37;5.40;;;;;;;-146.64;59.71;35361.19;5072870;28;20066;-74
2022/06/17 07:32:02;;;;;;;8.80;4.93;;;;;;;-146.64;59.21;35422.53;5078926;28;20026;-74
2022/06/17 07:34:27;;;;;;;12.77;4.90;;;;;;;-146.64;60.43;35332.56;5092940;28;20034;-74
2022/06/17 07:39:55;;;;;;;7.20;4.40;;;;;;;-146.64;60.65;35471.59;5091366;28;20039;-75
2022/06/17 07:42:26;;;;;;;8.57;4.05;;;;;;;-146.64;60.23;35185.38;5074746;28;20039;-75
2022/06/17 07:44:55;;;;;;;8.73;4.85;;;;;;;-146.64;59.43;35285.53;5090378;28;20039;-74
2022/06/17 07:47:22;;;;;;;11.25;4.22;;;;;;;-146.64;59.27;35169.00;5094549;28;20081;-74
2022/06/17 07:49:47;;;;;;;14.95;4.22;;;;;;;-146.64;59.74;35359.16;5071241;28;20032;-74
2022/06/17 07:52:13;;;;;;;10.13;4.77;;;;;;;-146.64;60.80;35209.91;5080165;28;20028;-75
2022/06/17 07:54:38;;;;;;;8.75;4.20;;;;;;;-146.64;59.63;35254.88;5070787;28;20070;-74
2022/06/17 07:57:04;;;;;;;9.70;4.63;;;;;;;-146.64;58.11;35336.66;5089386;28;20035;-75
2022/06/17 07:59:30;;;;;;;7.40;4.25;;;;;;;-146.64;57.05;35455.25;5067916;28;20530;-74
2022/06/17 08:01:55;;;;;;;10.43;3.85;;;;;;;-146.64;59.82;35512.50;5074495;28;20498;-74
2022/06/17 08:04:20;;;;;;;9.50;4.27;;;;;;;-146.64;59.61;35398.00;5071035;28;20062;-75
2022/06/17 08:06:51;;;;;;;9.07;4.03;;;;;;;-146.64;58.56;35438.88;5091526;28;20477;-74
2022/06/17 08:09:20;;;;;;;9.43;4.65;;;;;;;-146.64;58.32;35635.16;5091456;28;20032;-74
2022/06/17 08:11:47;;;;;;;14.05;4.90;;;;;;;-146.64;59.35;35532.94;5072674;28;20028;-74
2022/06/17 08:14:13;;;;;;;9.48;5.13;;;;;;;-146.64;58.10;35471.59;5071722;28;20039;-74
2022/06/17 08:16:39;;;;;;;;;;;;;;;-146.64;58.99;35588.13;5056072;28;20072;-75
2022/06/17 08:19:07;;;;;;;12.43;4.53;;;;;;;-146.64;59.17;35647.44;5055875;28;20264;-74
2022/06/17 08:21:33;;;;;;;9.48;4.78;;;;;;;-146.64;58.12;35806.94;5053678;28;20331;-74
2022/06/17 08:23:58;;;;;;;13.38;4.68;;;;;;;-146.64;58.59;35704.69;5050724;28;20037;-75
2022/06/17 08:26:23;;;;;;;13.13;5.00;;;;;;;-146.64;57.49;35598.38;5069255;28;20400;-74
2022/06/17 08:28:49;;;;;;;13.17;5.73;;;;;;;-146.64;57.50;35663.78;5041552;28;20509;-75
2022/06/17 08:31:14;;;;;;;14.53;4.67;;;;;;;-146.64;58.62;35541.13;5068176;28;20039;-74
2022/06/17 08:33:39;;;;;;;6.70;4.17;;;;;;;-146.64;56.84;35553.38;5037923;28;20554;-74
2022/06/17 08:36:09;;;;;;;12.60;4.40;;;;;;;-146.64;57.54;35522.72;5070149;28;20435;-75
2022/06/17 08:38:38;;;;;;;9.80;5.28;;;;;;;-146.64;57.23;35606.53;5056862;28;20145;-74
2022/06/17 08:41:06;;;;;;;7.82;4.22;;;;;;;-146.64;57.37;35641.31;5068586;28;20058;-75
2022/06/17 08:43:35;;;;;;;8.98;3.92;;;;;;;-146.64;56.41;35539.06;5053810;28;20086;-74
2022/06/17 08:46:21;;;;;;;9.77;3.80;;;;;;;-146.64;56.29;35483.88;5071195;28;20024;-75
2022/06/17 08:49:04;;;;;;;15.20;4.03;;;;;;;-146.64;56.95;35316.22;5067738;28;20033;-76
2022/06/17 08:51:43;;;;;;;8.95;4.20;;;;;;;-146.64;55.95;35371.41;5068327;28;20388;-75
2022/06/17 08:54:20;;;;;;;10.65;4.20;;;;;;;-146.64;56.11;35447.06;5050890;28;20064;-75
2022/06/17 08:57:02;;;;;;;7.22;3.08;;;;;;;-146.64;57.15;35238.53;5059196;28;20048;-75
2022/06/17 08:59:34;;;;;;;7.63;4.18;;;;;;;-146.64;55.08;35451.16;5048857;28;20065;-75
2022/06/17 09:02:07;;;;;;;8.68;3.97;;;;;;;-146.64;56.94;35389.81;5068401;28;20032;-75
2022/06/17 09:04:41;;;;;;;10.38;3.75;;;;;;;-146.64;55.85;35430.69;5046945;28;20036;-75
2022/06/17 09:07:26;;;;;;;14.43;4.13;;;;;;;-146.64;56.95;35436.84;5068525;28;20554;-76
2022/06/17 09:10:16;;;;;;;12.30;3.42;;;;;;;-146.64;55.48;35205.81;5070147;28;20050;-75
2022/06/17 09:12:51;;;;;;;8.98;3.60;;;;;;;-146.64;53.92;35218.06;5067408;28;20032;-74
2022/06/17 09:15:43;;;;;;;9.38;3.67;;;;;;;-146.64;54.07;35087.22;5065607;28;20671;-75
2022/06/17 09:18:16;;;;;;;10.52;2.95;;;;;;;-146.64;54.20;35095.41;5054768;28;20048;-75
2022/06/17 09:20:43;;;;;;;11.90;3.63;;;;;;;-146.64;53.27;35001.38;5082160;28;20549;-76
2022/06/17 09:23:12;;;;;;;6.43;2.97;;;;;;;-146.64;50.93;35128.13;5060592;28;20450;-74
2022/06/17 09:25:46;;;;;;;6.28;2.85;;;;;;;-146.64;51.76;34903.25;5070191;28;20502;-75
2022/06/17 09:28:34;;;;;;;7.82;2.42;;;;;;;-146.64;50.30;34860.31;5074067;28;20489;-75
2022/06/17 09:31:35;;;;;;;7.00;2.67;;;;;;;-146.64;49.23;35017.72;5040208;28;20032;-75
2022/06/17 09:34:09;;;;;;;7.65;3.10;;;;;;;-146.64;49.31;34866.44;5067793;28;20416;-75
2022/06/17 09:37:00;;;;;;;5.80;2.40;;;;;;;-146.64;49.80;34776.50;5049678;28;20031;-75
2022/06/17 09:39:41;;;;;;;12.57;3.35;;;;;;;-146.64;48.46;34780.59;5085274;28;20024;-75
2022/06/17 09:42:10;;;;;;;9.35;2.80;;;;;;;-146.64;48.20;34833.72;5066999;28;20146;-75
2022/06/17 09:45:09;;;;;;;5.82;3.00;;;;;;;-146.64;47.51;34668.16;5071097;28;20050;-75
2022/06/17 09:47:46;;;;;;;6.95;2.33;;;;;;;-146.64;46.50;34608.88;5061132;28;20028;-76
2022/06/17 09:50:17;;;;;;;17.40;2.60;;;;;;;-146.64;47.18;34625.22;5071229;28;20029;-75
2022/06/17 09:52:45;;;;;;;4.93;2.63;;;;;;;-146.64;47.17;34621.13;5066434;28;20081;-75
2022/06/17 09:55:20;;;;;;;15.70;3.35;;;;;;;-146.64;46.39;34674.28;5068587;28;20043;-75
2022/06/17 09:57:58;;;;;;;10.68;2.70;;;;;;;-146.64;46.80;34490.31;5067025;28;20021;-76
2022/06/17 10:00:29;;;;;;;7.95;2.13;;;;;;;-146.64;47.19;34488.28;5068181;28;20131;-77
2022/06/17 10:03:12;;;;;;;4.22;2.30;;;;;;;-146.64;47.67;34441.25;5053904;28;20350;-76
2022/06/17 10:06:02;;;;;;;8.63;2.28;;;;;;;-146.64;45.81;34653.84;5071360;28;20036;-75
2022/06/17 10:08:53;;;;;;;11.73;2.60;;;;;;;-146.64;45.57;34388.09;5065554;28;20035;-76
2022/06/17 10:11:27;;;;;;;7.85;2.58;;;;;;;-146.64;45.47;34245.03;5069275;28;20024;-76
2022/06/17 10:14:29;;;;;;;4.93;2.42;;;;;;;-146.64;44.54;34310.44;5077453;28;20028;-76
2022/06/17 10:20:07;;;;;;;6.63;2.50;;;;;;;-146.64;44.50;34245.03;5066424;28;20055;-76
2022/06/17 10:22:55;;;;;;;9.65;2.40;;;;;;;-146.64;43.15;34240.94;5069910;28;20032;-76
2022/06/17 10:25:41;;;;;;;3.75;1.92;;;;;;;-146.64;42.81;34069.25;5071435;28;20429;-76
2022/06/17 10:28:32;;;;;;;10.98;2.30;;;;;;;-146.64;42.10;34120.34;5072300;28;20028;-76
2022/06/17 10:31:03;;;;;;;7.15;2.22;;;;;;;-146.64;41.99;34330.88;5067046;28;20032;-75
2022/06/17 10:33:32;;;;;;;4.15;2.17;;;;;;;-146.64;40.97;34271.59;5065640;28;20024;-75
2022/06/17 10:35:57;;;;;;;5.55;2.10;;;;;;;-146.64;41.99;34195.97;5069229;28;20112;-76
2022/06/17 10:38:29;;;;;;;2.95;1.98;;;;;;;-146.64;41.36;34195.97;5055722;28;20110;-74
2022/06/17 10:40:55;;;;;;;5.22;2.10;;;;;;;-146.64;41.68;34114.22;5073221;28;20040;-74
2022/06/17 10:43:27;;;;;;;8.73;2.33;;;;;;;-146.64;40.70;34275.69;5068533;28;20036;-73
2022/06/17 10:45:53;;;;;;;6.07;2.13;;;;;;;-146.64;41.45;33899.63;5050818;28;20667;-74
2022/06/17 10:48:33;;;;;;;8.20;1.63;;;;;;;-146.64;41.27;34012.03;5076618;28;20040;-74
2022/06/17 10:51:03;;;;;;;4.80;2.20;;;;;;;-146.64;38.78;33967.06;5068030;28;20032;-75
2022/06/17 10:53:44;;;;;;;7.43;1.80;;;;;;;-146.64;40.49;33813.78;5068721;28;20085;-73
2022/06/17 10:56:13;;;;;;;7.50;2.22;;;;;;;-146.64;39.33;33873.03;5052292;28;20071;-73
2022/06/17 10:58:54;;;;;;;5.50;1.80;;;;;;;-146.64;39.00;33799.47;5069321;28;20055;-73
2022/06/17 11:01:19;;;;;;;6.65;1.75;;;;;;;-146.64;39.46;33948.66;5065717;28;20147;-73
2022/06/17 11:03:48;;;;;;;5.60;2.10;;;;;;;-146.64;38.34;33777.00;5067174;28;20110;-74
2022/06/17 11:06:22;;;;;;;6.65;1.63;;;;;;;-146.64;37.70;33697.28;5069042;28;20028;-75
2022/06/17 11:08:48;;;;;;;6.50;2.10;;;;;;;-146.64;38.26;33907.78;5050726;28;20123;-74
2022/06/17 11:13:58;;;;;;;4.85;1.65;;;;;;;-146.64;37.73;33607.38;5074485;28;20043;-74
2022/06/17 11:16:25;;;;;;;5.38;1.58;;;;;;;-146.64;37.98;33613.50;5071456;28;20035;-75
2022/06/17 11:18:55;;;;;;;2.67;1.50;;;;;;;-146.64;37.26;33613.50;5055865;28;20036;-75
2022/06/17 11:21:27;;;;;;;5.90;1.85;;;;;;;-146.64;37.68;33384.63;5082710;28;20127;-75
2022/06/17 11:23:53;;;;;;;5.20;1.40;;;;;;;-146.64;37.40;33288.56;5077082;28;20029;-75
2022/06/17 11:26:26;;;;;;;7.03;1.77;;;;;;;-146.64;37.84;33272.22;5057119;28;20103;-75
2022/06/17 11:28:55;;;;;;;4.82;1.42;;;;;;;-146.64;35.66;33360.09;5069701;28;20028;-75
2022/06/17 11:31:20;;;;;;;2.95;1.63;;;;;;;-146.64;34.97;33407.09;5062338;28;20047;-74
2022/06/17 11:33:52;;;;;;;5.40;1.83;;;;;;;-146.64;35.78;33447.97;5071184;28;20040;-75
2022/06/17 11:36:27;;;;;;;4.70;1.42;;;;;;;-146.64;35.27;33601.25;5060121;28;20052;-75